Time;durP1;ratioP1;P1;durP2;ratioP2;P2;SDS_P1;SDS_P2;PMS_P1;PMS_P2;Temp;Humidity;BMP_temperature;BMP_pressure;BME280_temperature;BME280_humidity;BME280_pressure;Samples;Min_cycle;Max_cycle;Signal;HPM_P1;HPM_P2
2022/08/30 00:02:46;;;;;;;24.47;17.95;;;;;;;21.12;62.05;100129.41;1782906;78;21052;-69
2022/08/30 00:05:15;;;;;;;27.37;18.00;;;;;;;21.06;62.33;100128.36;1789596;79;21088;-68
2022/08/30 00:07:49;;;;;;;20.88;17.48;;;;;;;21.04;62.54;100128.25;1739481;80;21420;-69
2022/08/30 00:10:16;;;;;;;22.32;18.27;;;;;;;20.99;62.79;100125.30;1789121;79;21036;-69
2022/08/30 00:12:44;;;;;;;21.17;17.35;;;;;;;20.96;62.94;100128.39;1789360;79;22470;-68
2022/08/30 00:15:13;;;;;;;22.73;16.93;;;;;;;20.96;63.02;100131.08;1780020;79;20938;-68
2022/08/30 00:17:42;;;;;;;23.42;17.05;;;;;;;20.96;62.99;100123.84;1770644;78;21080;-69
2022/08/30 00:20:15;;;;;;;25.80;18.30;;;;;;;20.99;62.88;100128.81;1797756;79;21036;-68
2022/08/30 00:22:41;;;;;;;25.12;17.98;;;;;;;21.01;62.92;100123.24;1790029;79;20954;-68
2022/08/30 00:25:08;;;;;;;29.85;18.45;;;;;;;20.99;62.90;100126.64;1788319;79;21945;-69
2022/08/30 00:27:37;;;;;;;25.23;17.92;;;;;;;20.95;63.03;100129.41;1785489;79;21020;-70
2022/08/30 00:30:05;;;;;;;26.07;18.17;;;;;;;20.86;63.30;100132.75;1789337;79;21102;-69
2022/08/30 00:32:31;;;;;;;24.27;17.95;;;;;;;20.81;63.49;100135.17;1789451;78;21737;-68
2022/08/30 00:35:01;;;;;;;22.37;17.95;;;;;;;20.77;63.63;100135.26;1774631;80;21453;-69
2022/08/30 00:37:30;;;;;;;25.65;18.10;;;;;;;20.73;63.75;100137.48;1768547;80;22497;-68
2022/08/30 00:39:57;;;;;;;22.80;17.67;;;;;;;20.71;63.91;100134.16;1797812;79;21481;-69
2022/08/30 00:42:23;;;;;;;26.93;18.27;;;;;;;20.70;64.09;100135.19;1791143;80;21010;-69
2022/08/30 00:44:50;;;;;;;23.50;17.30;;;;;;;20.68;64.23;100137.76;1800138;78;20928;-68
2022/08/30 00:47:17;;;;;;;26.02;17.52;;;;;;;20.68;64.28;100133.22;1795753;78;21010;-69
2022/08/30 00:49:51;;;;;;;25.08;16.12;;;;;;;20.70;64.18;100127.65;1799109;78;22025;-69
2022/08/30 00:52:17;;;;;;;20.95;16.48;;;;;;;20.69;64.14;100137.56;1776524;79;21325;-69
2022/08/30 00:54:44;;;;;;;23.45;16.20;;;;;;;20.68;63.99;100137.76;1804385;78;21437;-69
2022/08/30 00:57:11;;;;;;;22.15;16.27;;;;;;;20.70;63.88;100137.05;1785535;80;21494;-69
2022/08/30 00:59:38;;;;;;;22.02;15.88;;;;;;;20.72;63.80;100141.19;1753394;78;20904;-69
2022/08/30 01:02:05;;;;;;;25.92;15.93;;;;;;;20.72;63.78;100144.39;1794086;78;21847;-68
2022/08/30 01:04:32;;;;;;;23.45;16.30;;;;;;;20.72;63.80;100144.39;1790997;78;20920;-69
2022/08/30 01:06:59;;;;;;;21.05;15.60;;;;;;;20.72;63.77;100147.07;1807539;78;20938;-69
2022/08/30 01:09:25;;;;;;;19.90;15.28;;;;;;;20.68;63.85;100145.81;1792651;79;21103;-68
2022/08/30 01:11:53;;;;;;;20.32;15.32;;;;;;;20.65;63.97;100151.53;1795153;78;21023;-69
2022/08/30 01:14:21;;;;;;;19.90;15.35;;;;;;;20.61;64.08;100143.05;1799191;78;50134;-70
2022/08/30 01:16:48;;;;;;;20.80;14.90;;;;;;;20.56;64.20;100144.16;1794898;78;20901;-69
2022/08/30 01:19:26;;;;;;;17.50;14.70;;;;;;;20.54;64.28;100146.18;1790641;80;20979;-68
2022/08/30 01:21:57;;;;;;;23.10;14.80;;;;;;;20.50;64.41;100144.91;1797786;78;21289;-68
2022/08/30 01:24:23;;;;;;;18.67;15.08;;;;;;;20.49;64.64;100149.45;1798235;78;20972;-68
2022/08/30 01:26:50;;;;;;;20.62;15.13;;;;;;;20.48;64.74;100153.67;1789544;78;21901;-68
2022/08/30 01:29:20;;;;;;;20.57;15.05;;;;;;;20.48;64.88;100150.98;1792250;79;21006;-68
2022/08/30 01:31:46;;;;;;;22.90;14.78;;;;;;;20.48;64.85;100150.48;1799916;78;20995;-68
2022/08/30 01:34:13;;;;;;;21.45;15.13;;;;;;;20.49;64.78;100147.28;1780122;79;21031;-69
2022/08/30 01:36:41;;;;;;;19.82;14.58;;;;;;;20.46;64.76;100152.53;1788949;79;21054;-69
2022/08/30 01:39:08;;;;;;;21.27;15.20;;;;;;;20.40;64.79;100146.55;1782508;79;21870;-68
2022/08/30 01:41:35;;;;;;;19.42;14.20;;;;;;;20.37;64.87;100148.79;1795120;78;21050;-68
2022/08/30 01:44:06;;;;;;;23.73;14.98;;;;;;;20.34;64.99;100143.78;1795969;79;21010;-68
2022/08/30 01:46:38;;;;;;;19.10;14.30;;;;;;;20.33;65.08;100141.61;1789803;78;21447;-68
2022/08/30 01:49:12;;;;;;;19.20;15.05;;;;;;;20.32;65.19;100139.95;1796634;79;21496;-69
2022/08/30 01:51:39;;;;;;;19.02;14.00;;;;;;;20.30;65.21;100140.15;1792722;78;21775;-68
2022/08/30 01:54:05;;;;;;;21.60;15.25;;;;;;;20.30;65.23;100136.64;1782821;79;21447;-68
2022/08/30 01:56:32;;;;;;;19.87;14.95;;;;;;;20.30;65.18;100136.64;1788637;79;20998;-69
2022/08/30 01:58:59;;;;;;;24.57;14.93;;;;;;;20.29;65.18;100135.81;1799354;79;20980;-68
2022/08/30 02:01:27;;;;;;;22.15;14.10;;;;;;;20.28;65.19;100135.49;1802139;78;21000;-68
2022/08/30 02:03:54;;;;;;;15.75;14.07;;;;;;;20.30;65.20;100139.32;1789319;80;21984;-68
2022/08/30 02:06:21;;;;;;;16.27;14.38;;;;;;;20.29;65.22;100136.32;1789155;79;20908;-68
2022/08/30 02:08:48;;;;;;;18.82;14.45;;;;;;;20.28;65.31;100138.69;1795368;79;21030;-70
2022/08/30 02:11:15;;;;;;;19.07;15.13;;;;;;;20.23;65.49;100140.58;1802720;78;20971;-70
2022/08/30 02:13:43;;;;;;;19.37;15.55;;;;;;;20.18;65.68;100142.19;1789688;79;20995;-69
2022/08/30 02:16:15;;;;;;;22.55;15.78;;;;;;;20.12;65.93;100142.94;1788303;79;22554;-69
2022/08/30 02:18:42;;;;;;;23.10;15.72;;;;;;;20.11;66.08;100137.25;1789456;79;20924;-69
2022/08/30 02:21:08;;;;;;;19.27;15.93;;;;;;;20.10;66.18;100142.30;1798036;78;21354;-69
2022/08/30 02:23:35;;;;;;;21.05;15.45;;;;;;;20.09;66.18;100142.81;1800629;79;20976;-70
2022/08/30 02:26:03;;;;;;;18.25;15.05;;;;;;;20.09;66.35;100139.30;1798046;79;21494;-68
2022/08/30 02:28:30;;;;;;;22.32;14.87;;;;;;;20.07;66.49;100142.66;1792113;79;21915;-69
2022/08/30 02:30:56;;;;;;;19.12;14.85;;;;;;;20.05;66.66;100144.19;1778057;80;21176;-69
2022/08/30 02:33:23;;;;;;;21.25;15.38;;;;;;;20.03;66.78;100146.75;1705053;83;21464;-68
2022/08/30 02:35:49;;;;;;;20.77;15.93;;;;;;;20.02;66.91;100148.59;1771863;80;20962;-70
2022/08/30 02:38:16;;;;;;;22.35;15.78;;;;;;;20.04;66.99;100151.09;1797977;79;21028;-69
2022/08/30 02:40:43;;;;;;;20.80;15.35;;;;;;;20.02;67.10;100151.28;1789861;78;21896;-69
2022/08/30 02:43:10;;;;;;;18.95;15.58;;;;;;;20.00;67.16;100146.63;1805616;79;20930;-69
2022/08/30 02:45:37;;;;;;;19.95;15.65;;;;;;;20.01;67.16;100149.11;1810786;78;20947;-69
2022/08/30 02:48:04;;;;;;;20.25;15.63;;;;;;;20.00;67.21;100151.47;1789272;78;21367;-69
2022/08/30 02:50:30;;;;;;;19.75;15.53;;;;;;;19.97;67.24;100154.51;1789663;79;20924;-68
2022/08/30 02:52:57;;;;;;;20.52;15.30;;;;;;;19.95;67.31;100151.70;1809339;78;21822;-69
2022/08/30 02:55:23;;;;;;;20.37;15.38;;;;;;;19.89;67.34;100164.03;1764606;80;21409;-68
2022/08/30 02:57:50;;;;;;;17.92;15.53;;;;;;;19.82;67.43;100162.27;1789870;78;21038;-68
2022/08/30 03:00:18;;;;;;;20.43;15.03;;;;;;;19.80;67.58;100170.50;1789293;80;21003;-69
2022/08/30 03:02:45;;;;;;;17.87;14.45;;;;;;;19.77;67.79;100178.89;1792852;78;21033;-68
2022/08/30 03:05:12;;;;;;;18.20;15.08;;;;;;;19.75;67.97;100178.77;1787946;80;21958;-68
2022/08/30 03:07:40;;;;;;;20.80;15.15;;;;;;;19.73;68.13;100177.62;1791791;78;20920;-69
2022/08/30 03:10:07;;;;;;;19.57;15.40;;;;;;;19.76;68.22;100183.94;1790485;78;20980;-68
2022/08/30 03:12:34;;;;;;;21.48;15.43;;;;;;;19.77;68.22;100182.91;1791951;78;20995;-68
2022/08/30 03:15:04;;;;;;;18.05;14.58;;;;;;;19.78;68.22;100188.59;1805947;79;20942;-68
2022/08/30 03:17:31;;;;;;;22.73;15.72;;;;;;;19.81;68.13;100192.78;1796406;78;21948;-68
2022/08/30 03:19:59;;;;;;;24.87;15.85;;;;;;;19.84;68.12;100198.58;1798525;78;21066;-68
2022/08/30 03:22:26;;;;;;;20.57;15.60;;;;;;;19.83;68.12;100198.27;1814468;78;20992;-69
2022/08/30 03:24:56;;;;;;;17.37;14.63;;;;;;;19.81;68.21;100200.30;1782283;79;21150;-68
2022/08/30 03:27:21;;;;;;;23.02;15.88;;;;;;;19.82;68.22;100201.13;1765461;80;21391;-68
2022/08/30 03:29:47;;;;;;;20.95;15.50;;;;;;;19.66;68.63;100207.50;1771956;80;21780;-68
2022/08/30 03:32:13;;;;;;;22.60;16.20;;;;;;;19.64;68.85;100208.20;1790743;78;20991;-68
2022/08/30 03:34:40;;;;;;;19.67;15.78;;;;;;;19.63;68.93;100213.23;1772663;81;20958;-68
2022/08/30 03:37:06;;;;;;;19.07;15.43;;;;;;;19.63;69.05;100215.41;1800019;79;20984;-68
2022/08/30 03:39:33;;;;;;;19.80;15.30;;;;;;;19.63;69.15;100212.73;1791252;79;21017;-68
2022/08/30 03:42:00;;;;;;;20.82;15.25;;;;;;;19.65;69.31;100210.69;1794617;78;21899;-69
2022/08/30 03:44:26;;;;;;;23.25;15.05;;;;;;;19.67;69.44;100214.52;1787099;79;20867;-68
2022/08/30 03:46:52;;;;;;;22.42;15.32;;;;;;;19.68;69.37;100224.22;1791498;79;21034;-67
2022/08/30 03:49:22;;;;;;;20.72;15.28;;;;;;;19.66;69.36;100223.07;1797870;79;21007;-68
2022/08/30 03:51:49;;;;;;;19.07;15.23;;;;;;;19.66;69.43;100226.26;1788802;80;20912;-68
2022/08/30 03:54:16;;;;;;;18.45;15.63;;;;;;;19.65;69.54;100227.28;1783998;79;21972;-69
2022/08/30 03:56:44;;;;;;;18.50;15.83;;;;;;;19.65;69.67;100228.62;1765219;80;21074;-69
2022/08/30 03:59:11;;;;;;;19.52;15.48;;;;;;;19.64;69.74;100233.15;1815200;79;20944;-68
2022/08/30 04:01:38;;;;;;;23.10;15.60;;;;;;;19.66;69.84;100247.19;1798753;78;20990;-68
2022/08/30 04:04:04;;;;;;;21.27;16.23;;;;;;;19.66;69.92;100242.34;1787180;78;21007;-68
2022/08/30 04:06:33;;;;;;;24.23;16.17;;;;;;;19.68;70.12;100236.28;1787588;80;21906;-68
2022/08/30 04:09:02;;;;;;;18.90;16.17;;;;;;;19.73;70.30;100233.89;1798785;79;21071;-68
2022/08/30 04:11:31;;;;;;;22.00;16.23;;;;;;;19.78;70.34;100235.49;1762072;79;21148;-70
2022/08/30 04:13:59;;;;;;;25.10;17.48;;;;;;;19.84;70.36;100248.67;1793468;79;21042;-69
2022/08/30 04:16:26;;;;;;;21.02;17.57;;;;;;;19.90;70.28;100248.78;1789478;80;21498;-68
2022/08/30 04:18:52;;;;;;;22.90;17.90;;;;;;;19.95;70.24;100246.87;1793693;79;21891;-68
2022/08/30 04:21:19;;;;;;;22.35;18.37;;;;;;;20.01;70.24;100244.28;1765971;81;20928;-68
2022/08/30 04:23:46;;;;;;;23.50;18.27;;;;;;;20.08;70.21;100238.19;1800101;79;21066;-69
2022/08/30 04:26:12;;;;;;;26.65;19.55;;;;;;;20.13;70.26;100236.59;1771643;80;20948;-70
2022/08/30 04:28:39;;;;;;;24.35;19.02;;;;;;;20.22;70.34;100239.49;1779446;80;21206;-69
2022/08/30 04:31:10;;;;;;;28.60;19.50;;;;;;;20.28;70.31;100240.61;1775956;80;21861;-69
2022/08/30 04:33:37;;;;;;;28.15;19.15;;;;;;;20.35;70.34;100236.64;1765428;80;21023;-69
2022/08/30 04:36:05;;;;;;;29.12;20.27;;;;;;;20.42;70.26;100238.90;1762515;80;21039;-69
2022/08/30 04:38:33;;;;;;;28.02;20.32;;;;;;;20.49;70.20;100246.04;1813336;79;21438;-68
2022/08/30 04:40:59;;;;;;;27.73;18.67;;;;;;;20.56;70.19;100246.12;1803490;78;21480;-68
2022/08/30 04:43:26;;;;;;;26.23;19.07;;;;;;;20.64;70.10;100249.17;1787362;80;22399;-68
2022/08/30 04:45:53;;;;;;;25.95;18.52;;;;;;;20.69;70.12;100247.59;1790240;78;21493;-69
2022/08/30 04:48:21;;;;;;;23.32;17.35;;;;;;;20.75;70.21;100252.21;1792751;78;21350;-68
2022/08/30 04:50:48;;;;;;;25.27;16.82;;;;;;;20.83;70.36;100257.95;1792298;78;21423;-68
2022/08/30 04:53:14;;;;;;;22.17;16.10;;;;;;;20.88;70.46;100258.22;1763434;80;21035;-69
2022/08/30 04:55:42;;;;;;;20.27;15.53;;;;;;;20.93;70.49;100262.48;1766259;80;21845;-68
2022/08/30 04:58:10;;;;;;;21.33;15.72;;;;;;;21.01;70.56;100255.65;1792403;78;21025;-69
2022/08/30 05:00:37;;;;;;;20.80;15.25;;;;;;;21.10;70.62;100253.16;1785374;78;21458;-69
2022/08/30 05:03:04;;;;;;;19.67;15.35;;;;;;;21.20;70.59;100255.51;1800709;78;20984;-69
2022/08/30 05:05:40;;;;;;;21.23;14.28;;;;;;;21.30;70.54;100256.03;1806663;78;21394;-68
2022/08/30 05:08:09;;;;;;;16.52;13.20;;;;;;;21.39;70.45;100255.39;1792203;80;22604;-68
2022/08/30 05:10:38;;;;;;;16.77;12.75;;;;;;;21.51;70.32;100259.70;1765570;80;21009;-68
2022/08/30 05:13:06;;;;;;;16.97;11.03;;;;;;;21.62;70.24;100254.64;1791626;78;21446;-69
2022/08/30 05:15:33;;;;;;;15.78;11.08;;;;;;;21.76;70.03;100252.86;1793389;78;21405;-69
2022/08/30 05:17:59;;;;;;;16.17;10.43;;;;;;;21.90;69.64;100247.86;1736420;80;20960;-70
2022/08/30 05:20:26;;;;;;;13.50;10.48;;;;;;;22.04;69.24;100238.53;1777127;78;21904;-69
2022/08/30 05:22:52;;;;;;;13.93;10.65;;;;;;;22.19;68.84;100247.30;1795660;78;20925;-68
2022/08/30 05:25:22;;;;;;;17.48;10.00;;;;;;;22.33;68.23;100242.83;1780155;80;21333;-68
2022/08/30 05:27:49;;;;;;;16.23;10.72;;;;;;;22.46;67.70;100248.25;1790009;78;21085;-69
2022/08/30 05:30:16;;;;;;;16.23;9.78;;;;;;;22.61;67.27;100251.62;1780397;79;20996;-68
2022/08/30 05:32:42;;;;;;;13.78;10.23;;;;;;;22.91;66.44;100241.86;1806216;78;21947;-71
2022/08/30 05:35:10;;;;;;;13.15;10.03;;;;;;;23.05;65.42;100248.39;1787603;78;20904;-69
2022/08/30 05:37:37;;;;;;;15.45;9.58;;;;;;;23.19;64.94;100247.90;1795394;78;20967;-70
2022/08/30 05:40:05;;;;;;;14.15;9.88;;;;;;;23.31;64.76;100246.75;1757244;80;21099;-69
2022/08/30 05:42:32;;;;;;;14.70;9.88;;;;;;;23.42;64.21;100246.95;1801544;78;20992;-68
2022/08/30 05:44:59;;;;;;;12.18;9.43;;;;;;;23.53;63.59;100250.05;1714170;82;22614;-68
2022/08/30 05:47:26;;;;;;;14.65;9.50;;;;;;;23.62;63.26;100254.21;1771865;79;21011;-68
2022/08/30 05:49:52;;;;;;;13.08;10.15;;;;;;;23.70;63.00;100248.08;1769183;79;21083;-69
2022/08/30 05:52:19;;;;;;;14.35;9.55;;;;;;;23.81;62.83;100246.61;1771589;79;21502;-69
2022/08/30 05:54:52;;;;;;;22.67;15.43;;;;;;;23.90;62.59;100249.91;1797466;78;20999;-70
2022/08/30 05:57:19;;;;;;;16.17;13.68;;;;;;;23.95;61.69;100252.81;1813442;79;22452;-70
2022/08/30 05:59:45;;;;;;;16.25;10.43;;;;;;;23.97;61.63;100247.50;1795511;79;21499;-69
2022/08/30 06:02:12;;;;;;;17.62;14.55;;;;;;;24.02;61.43;100252.77;1802619;78;21023;-71
2022/08/30 06:04:39;;;;;;;10.23;9.13;;;;;;;24.06;61.38;100252.15;1804923;78;21025;-69
2022/08/30 06:07:06;;;;;;;12.45;10.18;;;;;;;24.11;61.28;100257.72;1812447;78;21097;-71
2022/08/30 06:09:33;;;;;;;11.65;10.45;;;;;;;24.15;60.95;100248.17;1761428;80;22360;-71
2022/08/30 06:12:01;;;;;;;16.32;9.70;;;;;;;24.17;60.91;100252.83;1764224;80;21507;-68
2022/08/30 06:14:27;;;;;;;14.30;9.28;;;;;;;24.22;60.93;100252.17;1770024;80;21406;-69
2022/08/30 06:16:57;;;;;;;10.98;8.90;;;;;;;24.30;60.76;100249.23;1793962;80;20968;-69
2022/08/30 06:19:24;;;;;;;10.55;8.75;;;;;;;24.39;60.48;100250.69;1793014;80;21003;-68
2022/08/30 06:21:50;;;;;;;12.37;8.93;;;;;;;24.41;60.07;100258.04;1792776;80;21897;-69
2022/08/30 06:24:17;;;;;;;11.30;8.95;;;;;;;24.39;59.86;100260.66;1793552;78;20920;-68
2022/08/30 06:26:45;;;;;;;9.60;8.40;;;;;;;24.39;59.88;100253.91;1792723;78;21074;-72
2022/08/30 06:29:14;;;;;;;9.98;8.85;;;;;;;24.43;60.00;100264.08;1802964;78;21058;-69
2022/08/30 06:31:41;;;;;;;12.35;9.05;;;;;;;24.52;60.21;100257.39;1793678;80;20929;-69
2022/08/30 06:34:07;;;;;;;12.15;8.70;;;;;;;24.62;59.99;100252.88;1753344;81;21932;-70
2022/08/30 06:36:35;;;;;;;9.88;8.85;;;;;;;24.70;59.62;100260.69;1737808;82;21004;-69
2022/08/30 06:39:02;;;;;;;11.05;9.00;;;;;;;24.78;59.54;100259.09;1746926;81;20944;-72
2022/08/30 06:41:31;;;;;;;12.98;9.35;;;;;;;24.87;59.26;100266.41;1718516;81;21256;-69
2022/08/30 06:44:00;;;;;;;10.00;8.35;;;;;;;24.91;59.21;100264.95;1726714;81;20999;-69
2022/08/30 06:46:31;;;;;;;9.55;8.33;;;;;;;25.00;59.05;100264.17;1724271;81;21931;-69
2022/08/30 06:48:58;;;;;;;10.32;7.78;;;;;;;25.06;58.19;100269.53;1752899;80;21404;-69
2022/08/30 06:51:30;;;;;;;11.45;8.30;;;;;;;25.09;58.14;100271.82;1759827;80;21579;-70
2022/08/30 06:53:57;;;;;;;10.90;8.55;;;;;;;25.20;58.44;100273.52;1777680;80;21051;-70
2022/08/30 06:56:25;;;;;;;10.63;8.50;;;;;;;25.30;58.14;100263.86;1752057;81;21011;-69
2022/08/30 06:58:52;;;;;;;38.10;33.98;;;;;;;25.40;57.57;100267.41;1756451;80;22333;-70
2022/08/30 07:01:22;;;;;;;16.75;15.05;;;;;;;25.45;57.17;100268.09;1755674;80;21014;-70
2022/08/30 07:03:49;;;;;;;10.53;9.13;;;;;;;25.54;57.03;100271.64;1757142;80;21440;-68
2022/08/30 07:06:16;;;;;;;14.25;9.03;;;;;;;25.63;56.87;100270.30;1763654;80;21441;-69
2022/08/30 07:08:42;;;;;;;10.45;7.65;;;;;;;25.71;57.08;100269.23;1761622;80;21394;-72
2022/08/30 07:11:09;;;;;;;12.40;7.92;;;;;;;25.82;56.87;100267.66;1771348;79;21769;-73
2022/08/30 07:13:36;;;;;;;9.80;7.78;;;;;;;25.90;55.83;100270.08;1747969;80;21655;-69
2022/08/30 07:16:12;;;;;;;10.30;7.47;;;;;;;25.92;55.69;100278.27;1736109;80;21302;-70
2022/08/30 07:18:55;;;;;;;10.98;8.40;;;;;;;25.94;55.56;100267.21;1765272;80;21473;-70
2022/08/30 07:21:27;;;;;;;9.80;7.92;;;;;;;25.97;55.42;100273.55;1765206;79;21373;-69
2022/08/30 07:23:56;;;;;;;13.03;7.97;;;;;;;26.06;55.39;100275.44;1733597;81;22399;-71
2022/08/30 07:26:33;;;;;;;9.48;8.00;;;;;;;26.10;55.29;100284.22;1735445;81;21027;-71
2022/08/30 07:29:00;;;;;;;10.63;7.37;;;;;;;26.13;54.75;100278.87;1741389;81;21066;-71
2022/08/30 07:31:27;;;;;;;9.18;7.37;;;;;;;26.20;54.93;100282.33;1744859;81;21482;-71
2022/08/30 07:33:54;;;;;;;11.18;7.75;;;;;;;26.31;54.92;100280.74;1801282;78;21426;-71
2022/08/30 07:36:20;;;;;;;13.55;7.90;;;;;;;26.44;55.10;100282.81;1811753;78;22592;-72
2022/08/30 07:38:48;;;;;;;10.58;7.67;;;;;;;26.52;54.61;100279.77;1816721;79;21462;-73
2022/08/30 07:41:26;;;;;;;11.43;7.30;;;;;;;26.57;54.35;100283.16;1801946;77;21671;-73
2022/08/30 07:43:54;;;;;;;9.73;6.83;;;;;;;26.62;53.85;100287.34;1776705;80;20971;-73
2022/08/30 07:46:21;;;;;;;8.38;7.47;;;;;;;26.60;53.50;100277.27;1792709;78;20997;-73
2022/08/30 07:48:47;;;;;;;8.73;6.83;;;;;;;26.56;53.51;100278.80;1786073;79;21877;-72
2022/08/30 07:51:18;;;;;;;9.28;7.58;;;;;;;26.50;53.79;100281.88;1788127;78;21083;-73
2022/08/30 07:53:45;;;;;;;9.20;7.42;;;;;;;26.51;53.69;100283.53;1819485;78;21505;-73
2022/08/30 07:56:12;;;;;;;8.68;7.50;;;;;;;26.55;53.82;100277.67;1767087;80;21055;-72
2022/08/30 07:58:38;;;;;;;12.78;7.87;;;;;;;26.56;53.54;100276.09;1795053;79;21006;-71
2022/08/30 08:01:06;;;;;;;11.65;7.70;;;;;;;26.57;53.54;100274.20;1765310;80;21777;-71
2022/08/30 08:03:34;;;;;;;8.88;7.55;;;;;;;26.59;53.79;100276.15;1788440;78;21068;-72
2022/08/30 08:06:03;;;;;;;10.32;8.23;;;;;;;26.67;54.05;100276.66;1784315;80;21049;-71
2022/08/30 08:08:30;;;;;;;9.88;7.53;;;;;;;26.81;54.00;100267.80;1807026;78;21473;-72
2022/08/30 08:10:56;;;;;;;9.38;7.90;;;;;;;26.97;53.93;100269.03;1820741;78;21031;-71
2022/08/30 08:13:23;;;;;;;11.55;8.35;;;;;;;27.16;53.49;100273.36;1804304;78;21905;-71
2022/08/30 08:15:50;;;;;;;8.88;7.72;;;;;;;27.30;52.47;100278.84;1758953;81;20982;-72
2022/08/30 08:18:17;;;;;;;9.70;7.53;;;;;;;27.31;50.35;100276.45;1799799;79;21014;-72
2022/08/30 08:20:44;;;;;;;8.85;7.25;;;;;;;27.32;51.44;100267.26;1793008;79;21647;-71
2022/08/30 08:23:11;;;;;;;10.45;7.92;;;;;;;27.42;51.49;100271.28;1770990;80;21003;-72
2022/08/30 08:25:40;;;;;;;9.90;8.00;;;;;;;27.48;51.24;100268.97;1812393;79;21911;-71
2022/08/30 08:28:06;;;;;;;8.93;8.05;;;;;;;27.39;50.92;100260.34;1793775;78;20980;-71
2022/08/30 08:30:37;;;;;;;9.35;7.92;;;;;;;27.34;51.17;100274.63;1779368;80;21041;-72
2022/08/30 08:33:08;;;;;;;9.23;7.55;;;;;;;27.27;51.18;100270.36;1792975;78;21501;-72
2022/08/30 08:35:36;;;;;;;9.88;8.43;;;;;;;27.24;51.77;100274.91;1790682;80;20968;-71
2022/08/30 08:38:03;;;;;;;9.55;7.60;;;;;;;27.25;51.71;100272.48;1760451;78;22283;-71
2022/08/30 08:40:42;;;;;;;10.68;8.30;;;;;;;27.29;52.31;100273.66;1728842;83;21359;-71
2022/08/30 08:43:14;;;;;;;11.08;7.58;;;;;;;27.42;52.15;100271.28;1740628;81;20911;-71
2022/08/30 08:45:50;;;;;;;8.88;8.00;;;;;;;27.53;52.22;100259.60;1788675;80;21933;-71
2022/08/30 08:48:45;;;;;;;11.33;7.60;;;;;;;27.66;52.05;100256.67;1777852;80;20982;-71
2022/08/30 08:54:34;;;;;;;8.70;7.80;;;;;;;27.88;50.73;100252.27;1808145;78;21012;-71
2022/08/30 08:57:00;;;;;;;11.25;7.60;;;;;;;27.99;50.55;100245.20;1733425;81;20975;-70
2022/08/30 08:59:27;;;;;;;7.67;6.97;;;;;;;28.13;50.32;100241.14;1809520;78;21004;-70
2022/08/30 09:01:57;;;;;;;7.75;6.95;;;;;;;28.23;49.77;100239.98;1807351;78;21003;-70
2022/08/30 09:04:32;;;;;;;8.28;6.90;;;;;;;28.23;48.55;100239.16;1793154;78;22476;-70
2022/08/30 09:07:10;;;;;;;7.40;6.67;;;;;;;28.18;48.87;100243.12;1787033;78;20905;-70
2022/08/30 09:09:39;;;;;;;7.60;6.80;;;;;;;28.25;48.79;100238.38;1790763;80;20968;-70
2022/08/30 09:12:08;;;;;;;7.83;6.58;;;;;;;28.32;48.44;100241.83;1785901;80;20974;-70
2022/08/30 09:14:39;;;;;;;13.05;7.50;;;;;;;28.40;48.82;100231.94;1785977;78;21071;-70
2022/08/30 09:17:10;;;;;;;8.70;6.80;;;;;;;28.48;48.94;100237.52;1791014;79;21932;-70
2022/08/30 09:19:50;;;;;;;10.08;7.85;;;;;;;28.60;49.15;100231.50;1791438;80;20948;-70
2022/08/30 09:22:36;;;;;;;7.67;6.85;;;;;;;28.77;48.43;100232.89;1785977;80;20987;-70
2022/08/30 09:25:13;;;;;;;7.10;6.40;;;;;;;28.90;48.03;100239.40;1788617;78;21633;-72
2022/08/30 09:27:46;;;;;;;6.53;5.90;;;;;;;28.96;47.02;100245.23;1799953;78;21349;-72
2022/08/30 09:30:22;;;;;;;7.15;6.33;;;;;;;28.92;46.77;100241.33;1763158;81;21785;-72
2022/08/30 09:32:58;;;;;;;7.75;6.15;;;;;;;28.93;46.80;100241.61;1780075;79;21000;-72
2022/08/30 09:35:39;;;;;;;8.15;5.85;;;;;;;28.98;46.45;100243.08;1769100;79;21085;-72
2022/08/30 09:38:17;;;;;;;6.33;5.67;;;;;;;29.14;46.10;100246.03;1769356;80;20971;-72
2022/08/30 09:40:47;;;;;;;6.25;5.65;;;;;;;29.22;45.61;100241.55;1766606;81;21027;-72
2022/08/30 09:43:22;;;;;;;7.40;6.20;;;;;;;29.31;45.77;100240.88;1760391;81;21889;-72
2022/08/30 09:46:02;;;;;;;6.72;5.85;;;;;;;29.46;45.32;100236.77;1770410;80;20864;-72
2022/08/30 09:48:38;;;;;;;6.00;5.40;;;;;;;29.55;44.83;100240.20;1822559;78;21022;-72
2022/08/30 09:51:13;;;;;;;7.03;5.78;;;;;;;29.85;44.87;100230.81;1787676;80;21051;-73
2022/08/30 09:53:55;;;;;;;7.03;5.12;;;;;;;29.85;44.87;100230.81;1795658;78;21019;-72
2022/08/30 09:56:44;;;;;;;6.67;5.15;;;;;;;30.24;42.75;100232.15;1796318;78;21970;-74
2022/08/30 09:59:31;;;;;;;5.85;4.80;;;;;;;30.24;42.75;100232.15;1751690;81;21002;-74
2022/08/30 10:02:23;;;;;;;5.75;4.72;;;;;;;30.28;42.02;100233.27;1790610;78;21070;-73
2022/08/30 10:04:58;;;;;;;6.10;4.80;;;;;;;30.34;41.83;100224.09;1761857;81;21187;-73
2022/08/30 10:07:29;;;;;;;7.55;5.00;;;;;;;30.49;41.97;100225.59;1784419;78;21007;-72
2022/08/30 10:10:07;;;;;;;5.78;4.53;;;;;;;30.66;40.97;100225.53;1759785;81;21829;-73
2022/08/30 10:13:16;;;;;;;6.03;4.22;;;;;;;30.69;41.25;100228.59;1795491;78;21042;-72
2022/08/30 10:15:54;;;;;;;5.03;4.28;;;;;;;30.81;40.50;100221.60;1809141;78;20999;-72
2022/08/30 10:18:32;;;;;;;4.53;4.10;;;;;;;30.94;40.68;100221.70;1803065;78;21042;-73
2022/08/30 10:21:17;;;;;;;6.90;4.42;;;;;;;31.03;40.45;100218.78;1822898;78;21019;-73
2022/08/30 10:23:50;;;;;;;5.72;4.30;;;;;;;31.16;40.92;100215.59;1822939;78;21895;-74
2022/08/30 10:26:28;;;;;;;4.78;4.25;;;;;;;31.32;40.16;100211.12;1810244;78;21015;-73
2022/08/30 10:29:11;;;;;;;4.58;4.17;;;;;;;31.43;38.79;100211.45;1762642;78;21023;-73
2022/08/30 10:31:55;;;;;;;5.87;4.37;;;;;;;31.46;39.21;100215.56;1797531;78;21059;-73
2022/08/30 10:34:31;;;;;;;4.78;4.05;;;;;;;31.56;38.74;100215.66;1751088;80;20912;-73
2022/08/30 10:37:09;;;;;;;5.30;4.28;;;;;;;31.58;39.06;100216.20;1782778;78;22543;-72
2022/08/30 10:39:46;;;;;;;4.58;4.17;;;;;;;31.61;38.54;100219.77;1800063;78;20995;-73
2022/08/30 10:42:25;;;;;;;4.83;4.03;;;;;;;31.57;38.84;100212.66;1768441;80;21018;-73
2022/08/30 10:45:09;;;;;;;5.30;3.95;;;;;;;31.68;38.63;100213.53;1773331;78;21027;-72
2022/08/30 10:47:56;;;;;;;5.62;4.25;;;;;;;31.71;38.04;100214.35;1795592;78;21039;-72
2022/08/30 10:50:33;;;;;;;7.45;4.17;;;;;;;31.69;37.52;100206.98;1771144;80;21791;-73
2022/08/30 10:53:14;;;;;;;6.72;3.85;;;;;;;31.82;37.64;100210.61;1786873;80;21004;-73
2022/08/30 10:55:54;;;;;;;4.55;3.92;;;;;;;31.97;37.22;100204.95;1774735;80;21468;-73
2022/08/30 10:58:20;;;;;;;6.40;3.90;;;;;;;32.03;37.32;100202.50;1820356;78;21031;-73
2022/08/30 11:01:24;;;;;;;5.92;4.60;;;;;;;32.15;36.66;100203.11;1803650;78;21025;-73
2022/08/30 11:04:32;;;;;;;6.47;4.37;;;;;;;32.22;36.42;100203.66;1793507;77;21823;-74
2022/08/30 11:07:45;;;;;;;4.97;4.42;;;;;;;32.21;36.07;100215.69;1774241;79;21481;-73
2022/08/30 11:10:38;;;;;;;8.85;4.10;;;;;;;32.19;35.93;100200.92;1765166;80;21014;-72
2022/08/30 11:13:12;;;;;;;5.30;4.10;;;;;;;32.26;35.70;100197.95;1820786;78;21016;-72
2022/08/30 11:16:05;;;;;;;7.67;4.20;;;;;;;32.33;36.12;100197.19;1797648;78;20975;-72
2022/08/30 11:18:55;;;;;;;5.37;4.00;;;;;;;32.55;35.21;100201.59;1697916;80;22461;-73
2022/08/30 11:21:41;;;;;;;4.30;3.83;;;;;;;32.70;35.14;100198.86;1802930;78;21062;-73
2022/08/30 11:24:14;;;;;;;4.75;4.10;;;;;;;32.88;34.66;100194.25;1801432;79;21453;-73
2022/08/30 11:26:49;;;;;;;;;;;;;;;32.92;34.40;100194.00;1804822;78;21054;-73
2022/08/30 11:29:43;;;;;;;4.70;3.85;;;;;;;32.84;34.18;100199.19;1798338;78;20204;-73
2022/08/30 11:32:21;;;;;;;9.20;4.62;;;;;;;32.82;34.85;100183.02;1813954;78;22235;-73
2022/08/30 11:34:53;;;;;;;4.55;4.08;;;;;;;32.90;34.24;100196.16;1793995;78;20995;-74
2022/08/30 11:37:41;;;;;;;9.50;4.50;;;;;;;32.91;34.78;100189.63;1787541;80;21032;-73